Latest Coastal Weather Observations for Hervey Bay

IDQ60701

Issued at 8:12 am EST Thursday 29 January 2015 (issued every 10 minutes, with the page automatically refreshed every 10 minutes)

About coastal observations | Map of coastal stations | Coastal observations for QLD | Marine services | Other Formats
Station Details ID: 040405 Name: HERVEY BAY AIRPORT Lat: -25.32 Lon: 152.88 Height: 12.98 m
Data from the previous 72 hours. | See also: Recent months at Hervey Bay
Date/Time
EST
Temp

°C
Wind Pressure Rain
since 9am
mm
Weather Cloud Vis
km
Sea
Height
m
Swell
Dir
 
Speed
knots
Gust
knots
hPa Trend Height
m
Period
s
Dir
29/08:00am 22.1 S 5 8 1007.2 - 4.2 - Partly cloudy 10 - - - -
29/07:30am 21.4 SSW 7 9 1007.1 - 4.2 - Partly cloudy 10 - - - -
29/07:00am 21.1 SSW 5 7 1006.9 - 4.2 - Partly cloudy 10 - - - -
29/06:30am 21.1 SSW 6 8 1006.9 - 4.2 - Cloudy 10 - - - -
29/06:00am 20.9 SSW 5 7 1006.3 - 4.0 - Cloudy 10 - - - -
29/05:30am 21.0 SSW 8 10 1006.1 - 4.0 - Partly cloudy 10 - - - -
29/05:00am 21.3 SSW 7 11 1005.8 - 4.0 - Partly cloudy 10 - - - -
29/04:30am 22.1 S 7 11 1005.5 - 4.0 - Partly cloudy 10 - - - -
29/04:00am 21.9 S 7 10 1005.2 - 3.8 - Partly cloudy 10 - - - -
29/03:30am 21.7 SSW 4 7 1005.5 - 3.8 - Partly cloudy 10 - - - -
29/03:00am 21.5 S 4 6 1005.4 - 3.8 - Cloudy 10 - - - -
29/02:30am 21.6 S 4 6 1005.3 - 3.8 - Cloudy 10 - - - -
29/02:00am 21.8 SSW 8 12 1005.5 - 3.8 - Partly cloudy 10 - - - -
29/01:30am 22.1 S 8 11 1005.7 - 3.8 - Partly cloudy 10 - - - -
29/01:00am 22.1 SSW 6 10 1006.1 - 3.8 - Partly cloudy 10 - - - -
29/12:30am 22.0 S 6 9 1006.1 - 3.8 - Partly cloudy 8 - - - -
29/12:28am 21.9 SSE 7 11 1006.1 - 3.8 - Partly cloudy 8 - - - -
29/12:08am 22.0 S 7 12 1006.4 - 3.2 - Partly cloudy 5 - - - -
 
Date/Time
EST
Temp

°C
Wind Pressure Rain
since 9am
mm
Weather Cloud Vis
km
Sea
Height
m
Swell
Dir
 
Speed
knots
Gust
knots
hPa Trend Height
m
Period
s
Dir
28/11:30pm 22.4 SSW 5 7 1006.8 - 2.8 - Partly cloudy 9 - - - -
28/11:08pm 22.3 SE 7 10 1006.8 - 2.0 - Partly cloudy 5 - - - -
28/11:00pm 22.4 SSE 6 9 1006.9 - 1.8 - Partly cloudy 9 - - - -
28/10:30pm 22.3 S 5 8 1007.0 - 1.4 - Partly cloudy 10 - - - -
28/10:00pm 22.4 SE 6 9 1006.7 - 1.2 - Partly cloudy 10 - - - -
28/09:30pm 22.3 SSE 6 10 1006.8 - 1.0 - Partly cloudy 6 - - - -
28/09:00pm 23.3 S 7 11 1006.3 - 0.6 - Mostly cloudy 10 - - - -
28/08:30pm 23.0 S 7 10 1006.1 - 0.6 - Cloudy 10 - - - -
28/08:00pm 22.7 SSE 6 9 1006.0 - 0.6 - Partly cloudy 10 - - - -
28/07:30pm 22.2 SE 7 10 1006.1 - 0.6 - Partly cloudy 10 - - - -
28/07:00pm 22.0 S 8 14 1006.2 - 0.4 - Partly cloudy 10 - - - -
28/06:30pm 22.5 S 7 12 1006.2 - 0.2 - Partly cloudy 10 - - - -
28/06:04pm 22.7 SE 10 17 1005.4 - 0.2 - Partly cloudy 10 - - - -
28/06:00pm 22.6 SE 11 17 1005.1 - 0.2 Recent precip. Cloudy 10 - - - -
28/05:47pm 22.7 SSE 11 22 1004.9 - 0.2 - Partly cloudy 5 - - - -
28/05:30pm 24.1 SSE 9 15 1004.9 - 0.0 - Partly cloudy 10 - - - -
28/05:00pm 24.3 S 10 16 1004.3 - 0.0 - Partly cloudy 10 - - - -
28/04:30pm 24.4 SSE 9 14 1004.1 - 0.0 - Partly cloudy 10 - - - -
28/04:00pm 24.2 SSE 8 13 1004.3 - 0.0 - Partly cloudy 10 - - - -
28/03:30pm 24.2 SSE 11 20 1004.0 - 0.0 - Partly cloudy 10 - - - -
28/03:00pm 25.0 SSE 12 19 1004.1 - 0.0 - Mostly clear 10 - - - -
28/02:30pm 25.8 SSE 10 16 1003.9 - 0.0 - Partly cloudy 10 - - - -
28/02:00pm 25.7 SSE 10 14 1004.2 - 0.0 - Partly cloudy 10 - - - -
28/01:30pm 26.5 SSE 10 14 1003.9 - 0.0 - Partly cloudy 10 - - - -
28/01:00pm 26.0 SSE 10 15 1004.1 - 0.0 - Partly cloudy 10 - - - -
28/12:30pm 25.5 SSE 10 14 1004.4 - 0.0 - Partly cloudy 10 - - - -
28/12:00pm 26.1 SSE 11 17 1004.5 - 0.0 - Partly cloudy 10 - - - -
28/11:30am 26.3 SSE 9 15 1004.9 - 0.0 - Partly cloudy 10 - - - -
28/11:00am 26.5 SSE 9 12 1005.0 - 0.0 - Partly cloudy 10 - - - -
28/10:30am 27.1 SE 8 12 1005.1 - 0.0 - Partly cloudy 10 - - - -
28/10:00am 26.2 SE 9 15 1005.1 - 0.0 - Partly cloudy 10 - - - -
28/09:30am 26.7 SE 8 13 1005.1 - 0.0 - Partly cloudy 10 - - - -
28/09:00am 26.6 SSE 9 16 1004.9 - 0.2 - Cloudy 10 - - - -
28/08:30am 25.9 SSE 8 12 1004.7 - 0.2 - Partly cloudy 10 - - - -
28/08:00am 25.5 SSE 10 18 1004.5 - 0.2 - Partly cloudy 10 - - - -
28/07:30am 25.8 SSE 8 13 1004.3 - 0.2 - Partly cloudy 10 - - - -
28/07:00am 24.7 S 7 11 1004.1 - 0.2 - Partly cloudy 10 - - - -
28/06:30am 24.6 S 5 7 1003.9 - 0.2 - - 10 - - - -
28/06:00am 24.3 S 5 6 1003.5 - 0.2 - Mostly clear 10 - - - -
28/05:30am 24.9 SSE 6 9 1003.1 - 0.2 - - 10 - - - -
28/05:00am 24.6 SE 6 10 1003.1 - 0.2 - Partly cloudy 10 - - - -
28/04:30am 24.4 SE 8 12 1002.9 - 0.2 - Partly cloudy 10 - - - -
28/04:00am 23.7 SE 7 10 1003.1 - 0.2 - Partly cloudy 10 - - - -
28/03:30am 24.5 SSE 7 11 1003.7 - 0.0 - Partly cloudy 10 - - - -
28/03:00am 25.5 SE 8 12 1003.5 - 0.0 - Mostly cloudy 10 - - - -
28/02:30am 25.1 SE 6 13 1003.6 - 0.0 - Partly cloudy 10 - - - -
28/02:00am 25.6 SE 6 10 1004.1 - 0.0 - Partly cloudy 10 - - - -
28/01:30am 25.8 SSE 7 11 1004.4 - 0.0 - Partly cloudy 10 - - - -
28/01:00am 25.9 SE 8 13 1004.6 - 0.0 - Partly cloudy 10 - - - -
28/12:30am 26.1 SE 8 13 1005.1 - 0.0 - Partly cloudy 10 - - - -
28/12:00am 26.1 ESE 10 13 1004.9 - 0.0 - Mostly cloudy 10 - - - -
 
Date/Time
EST
Temp

°C
Wind Pressure Rain
since 9am
mm
Weather Cloud Vis
km
Sea
Height
m
Swell
Dir
 
Speed
knots
Gust
knots
hPa Trend Height
m
Period
s
Dir
27/11:30pm 26.2 ESE 10 17 1005.0 - 0.0 - - 10 - - - -
27/11:00pm 26.3 ESE 11 15 1005.3 - 0.0 - Partly cloudy 10 - - - -
27/10:30pm 26.3 ESE 11 17 1005.3 - 0.0 - - 10 - - - -
27/10:00pm 26.4 ESE 9 13 1005.3 - 0.0 - - 10 - - - -
27/09:30pm 26.5 ESE 12 16 1005.3 - 0.0 - - 10 - - - -
27/09:00pm 26.6 E 12 16 1005.4 - 0.0 - - 10 - - - -
27/08:30pm 26.7 ESE 10 17 1005.3 - 0.0 - Partly cloudy 10 - - - -
27/08:00pm 26.8 ESE 13 17 1005.0 - 0.0 - - 10 - - - -
27/07:30pm 26.8 ESE 10 17 1005.3 - 0.0 - - 10 - - - -
27/07:00pm 26.8 ESE 11 15 1004.9 - 0.0 - Partly cloudy 10 - - - -
27/06:30pm 27.1 ESE 11 19 1004.3 - 0.0 - Partly cloudy 10 - - - -
27/06:00pm 27.3 ESE 12 16 1004.0 - 0.0 - Mostly clear 10 - - - -
27/05:30pm 28.0 ESE 13 17 1003.9 - 0.0 - Partly cloudy 10 - - - -
27/05:00pm 28.6 ESE 13 19 1003.5 - 0.0 - Partly cloudy 10 - - - -
27/04:30pm 27.8 ESE 14 21 1003.5 - 0.0 - Partly cloudy 10 - - - -
27/04:00pm 29.2 ESE 12 17 1003.4 - 0.0 - - 10 - - - -
27/03:30pm 29.6 ESE 10 15 1003.7 - 0.0 - - 10 - - - -
27/03:00pm 29.3 SE 9 17 1004.0 - 0.0 - - 10 - - - -
27/02:30pm 30.0 SE 10 14 1004.2 - 0.0 - - 10 - - - -
27/02:00pm 30.3 SE 11 17 1004.4 - 0.0 - - 10 - - - -
27/01:30pm 30.2 ESE 11 16 1004.8 - 0.0 - Partly cloudy 10 - - - -
27/01:00pm 30.5 ESE 12 17 1004.8 - 0.0 - - 10 - - - -
27/12:30pm 30.1 SE 12 17 1005.5 - 0.0 - Partly cloudy 10 - - - -
27/12:00pm 30.7 ESE 11 15 1005.7 - 0.0 - - 10 - - - -
27/11:30am 30.3 ESE 12 18 1005.9 - 0.0 - - 10 - - - -
27/11:00am 30.5 ESE 12 19 1006.2 - 0.0 - - 10 - - - -
27/10:30am 30.6 ESE 11 15 1006.5 - 0.0 - - 10 - - - -
27/10:00am 30.3 ESE 10 14 1006.6 - 0.0 - - 10 - - - -
27/09:30am 29.6 ESE 11 15 1006.5 - 0.0 - Partly cloudy 10 - - - -
27/09:00am 29.4 ESE 11 16 1006.5 - 0.0 - Mostly clear 10 - - - -
27/08:30am 29.5 ESE 12 16 1006.2 - 0.0 - Partly cloudy 10 - - - -
27/08:00am 29.1 ESE 11 15 1005.8 - 0.0 - - 10 - - - -
27/07:30am 28.5 ESE 10 14 1005.9 - 0.0 - - 10 - - - -
27/07:00am 27.5 ESE 12 17 1005.6 - 0.0 - - 10 - - - -
27/06:30am 27.6 ESE 12 17 1005.3 - 0.0 - - 10 - - - -
27/06:00am 26.8 ESE 9 12 1005.6 - 0.0 - - 10 - - - -
27/05:30am 26.3 SE 8 12 1005.9 - 0.0 - - 10 - - - -
27/05:00am 26.2 SE 6 10 1005.8 - 0.0 - - 10 - - - -
27/04:30am 26.4 ESE 9 12 1005.6 - 0.0 - Partly cloudy 10 - - - -
27/04:00am 26.6 ESE 7 10 1005.3 - 0.0 - Partly cloudy 10 - - - -
27/03:30am 26.8 SE 7 11 1004.8 - 0.0 - Partly cloudy 10 - - - -
27/03:00am 26.6 ESE 8 14 1004.1 - 0.0 - - 10 - - - -
27/02:30am 26.9 ESE 11 16 1004.4 - 0.0 - - 10 - - - -
27/02:00am 27.1 ESE 9 15 1004.9 - 0.0 - Partly cloudy 10 - - - -
27/01:30am 27.1 ESE 9 15 1005.2 - 0.0 - - 10 - - - -
27/01:00am 27.1 ESE 10 16 1005.0 - 0.0 - - 10 - - - -
27/12:30am 27.3 ESE 10 16 1005.6 - 0.0 - - 10 - - - -
27/12:00am 27.4 SE 10 16 1005.6 - 0.0 - Mostly clear 10 - - - -
 
Date/Time
EST
Temp

°C
Wind Pressure Rain
since 9am
mm
Weather Cloud Vis
km
Sea
Height
m
Swell
Dir
 
Speed
knots
Gust
knots
hPa Trend Height
m
Period
s
Dir
26/11:30pm 27.5 SE 9 16 1006.1 - 0.0 - Partly cloudy 10 - - - -
26/11:00pm 27.6 SE 9 13 1006.5 - 0.0 - Partly cloudy 10 - - - -
26/10:30pm 27.7 SE 9 15 1006.8 - 0.0 - Partly cloudy 10 - - - -
26/10:00pm 27.9 ESE 11 17 1007.0 - 0.0 - Partly cloudy 10 - - - -
26/09:30pm 27.7 ESE 10 15 1006.7 - 0.0 - Partly cloudy 10 - - - -
26/09:00pm 27.9 E 10 14 1006.4 - 0.0 - Mostly cloudy 10 - - - -
26/08:30pm 28.1 E 9 14 1006.4 - 0.0 - Partly cloudy 10 - - - -
26/08:00pm 28.1 ESE 11 19 1006.0 - 0.0 - Partly cloudy 10 - - - -
26/07:30pm 28.5 E 13 18 1005.6 - 0.0 - Partly cloudy 10 - - - -
26/07:00pm 28.5 ESE 11 15 1005.5 - 0.0 - Partly cloudy 10 - - - -
26/06:30pm 28.4 SE 7 11 1005.7 - 0.0 - Partly cloudy 10 - - - -
26/06:00pm 28.5 SE 8 13 1005.4 - 0.0 - Partly cloudy 10 - - - -
26/05:30pm 28.8 ESE 9 13 1004.8 - 0.0 - Partly cloudy 10 - - - -
26/05:00pm 29.0 SE 11 16 1004.4 - 0.0 - - 10 - - - -
26/04:30pm 30.1 ESE 12 15 1003.3 - 0.0 - - 10 - - - -
26/04:00pm 30.5 ESE 12 16 1003.8 - 0.0 - - 10 - - - -
26/03:30pm 32.4 ESE 12 17 1003.3 - 0.0 - - 10 - - - -
26/03:00pm 32.8 ESE 11 16 1003.6 - 0.0 - - 10 - - - -
26/02:30pm 32.6 ESE 12 15 1003.9 - 0.0 - - 10 - - - -
26/02:00pm 32.9 ESE 12 16 1003.8 - 0.0 - - 10 - - - -
26/01:30pm 33.6 ESE 9 13 1004.1 - 0.0 - - 10 - - - -
26/01:00pm 33.3 E 9 12 1004.2 - 0.0 - - 10 - - - -
26/12:30pm 33.3 SE 8 13 1004.5 - 0.0 - - 10 - - - -
26/12:00pm 33.0 ESE 9 11 1004.9 - 0.0 - - 10 - - - -
26/11:30am 32.7 ESE 8 11 1005.1 - 0.0 - - 10 - - - -
26/11:00am 32.4 SSE 5 8 1005.5 - 0.0 - - 10 - - - -
26/10:30am 31.4 E 7 9 1005.8 - 0.0 - - 10 - - - -
26/10:00am 30.6 ESE 7 10 1006.0 - 0.0 - - 10 - - - -
26/09:30am 29.6 E 7 10 1006.1 - 0.0 - - 10 - - - -
26/09:00am 29.7 SSE 2 7 1006.0 - 6.6 Rain - 10 - - - -
26/08:30am 28.7 SSW 3 4 1006.2 - 6.4 - - 10 - - - -

Other Formats:

Comma delimited format used in spreadsheet applications
http://www.bom.gov.au/fwo/IDQ60701/IDQ60701.95565.axf

JavaScript Object Notation format (JSON) in row-major order
http://www.bom.gov.au/fwo/IDQ60701/IDQ60701.95565.json